| time (UTC) | temp C | wind direction | speed KPH | gust KPH | rain 1hr cm | rain 24hr cm | rain mn cm | humidity % | barometer mb |
| 20260509153004 | 11 | 220 | 4.8 | 17.7 | 0.03 | 1.04 | 0.53 | 95 | 1010.6 |
| 20260509152504 | 11 | 227 | 3.2 | 17.7 | 0.05 | 1.04 | 0.53 | 95 | 1010.6 |
| 20260509152005 | 11 | 225 | 3.2 | 17.7 | 0.08 | 1.04 | 0.53 | 95 | 1010.6 |
| 20260509151505 | 11 | 226 | 4.8 | 9.7 | 0.08 | 1.04 | 0.53 | 95 | 1010.6 |
| 20260509151005 | 11 | 225 | 4.8 | 17.7 | 0.08 | 1.04 | 0.53 | 95 | 1010.6 |
| 20260509150505 | 11 | 222 | 4.8 | 17.7 | 0.10 | 1.04 | 0.53 | 95 | 1010.6 |
| 20260509150004 | 11 | 227 | 4.8 | 14.5 | 0.13 | 1.04 | 0.53 | 95 | 1010.6 |
| 20260509145504 | 11 | 232 | 6.4 | 14.5 | 0.13 | 1.04 | 0.53 | 95 | 1010.6 |
| 20260509145005 | 11 | 222 | 6.4 | 24.1 | 0.13 | 1.04 | 0.53 | 95 | 1010.6 |
| 20260509144505 | 11 | 218 | 6.4 | 24.1 | 0.15 | 1.04 | 0.53 | 95 | 1010.6 |
| 20260509144004 | 11 | 218 | 6.4 | 14.5 | 0.15 | 1.04 | 0.53 | 95 | 1010.6 |
| 20260509143504 | 11 | 218 | 6.4 | 14.5 | 0.15 | 1.02 | 0.51 | 95 | 1010.6 |
| 20260509143005 | 10 | 220 | 6.4 | 14.5 | 0.15 | 1.02 | 0.51 | 95 | 1010.6 |
| 20260509142504 | 10 | 224 | 6.4 | 12.9 | 0.15 | 0.99 | 0.48 | 95 | 1010.6 |
| 20260509142005 | 10 | 217 | 8.0 | 19.3 | 0.13 | 0.97 | 0.46 | 95 | 1010.6 |
| 20260509141504 | 10 | 215 | 8.0 | 19.3 | 0.13 | 0.97 | 0.46 | 95 | 1010.6 |
| 20260509141004 | 10 | 220 | 6.4 | 16.1 | 0.15 | 0.97 | 0.46 | 95 | 1010.6 |
| 20260509140504 | 10 | 223 | 6.4 | 16.1 | 0.13 | 0.94 | 0.43 | 95 | 1010.6 |
| 20260509140005 | 10 | 222 | 4.8 | 14.5 | 0.10 | 0.91 | 0.41 | 95 | 1010.6 |
| 20260509135505 | 10 | 219 | 4.8 | 14.5 | 0.10 | 0.91 | 0.41 | 95 | 1010.6 |
| 20260509135004 | 10 | 220 | 6.4 | 12.9 | 0.10 | 0.91 | 0.41 | 95 | 1010.6 |
| 20260509134525 | 10 | 219 | 6.4 | 17.7 | 0.10 | 0.89 | 0.38 | 95 | 1010.6 |
| 20260509134005 | 10 | 219 | 6.4 | 17.7 | 0.10 | 0.89 | 0.38 | 95 | 1010.6 |
| 20260509133504 | 10 | 224 | 6.4 | 14.5 | 0.10 | 0.86 | 0.36 | 95 | 1010.6 |
| 20260509133004 | 10 | 222 | 4.8 | 17.7 | 0.10 | 0.86 | 0.36 | 95 | 1010.6 |
| 20260509132505 | 10 | 219 | 4.8 | 17.7 | 0.08 | 0.84 | 0.33 | 95 | 1010.6 |
| 20260509132004 | 10 | 225 | 4.8 | 12.9 | 0.08 | 0.84 | 0.33 | 95 | 1010.6 |
| 20260509131505 | 10 | 232 | 4.8 | 12.9 | 0.08 | 0.84 | 0.33 | 96 | 1010.6 |
| 20260509131005 | 10 | 229 | 3.2 | 12.9 | 0.08 | 0.81 | 0.30 | 96 | 1010.6 |
| 20260509130525 | 10 | 229 | 3.2 | 12.9 | 0.08 | 0.81 | 0.30 | 96 | 1010.6 |
| 20260509130004 | 10 | 228 | 3.2 | 12.9 | 0.08 | 0.81 | 0.30 | 96 | 1010.6 |
| 20260509125526 | 10 | 228 | 3.2 | 12.9 | 0.08 | 0.81 | 0.30 | 95 | 1010.6 |
| 20260509125004 | 10 | 235 | 3.2 | 17.7 | 0.08 | 0.81 | 0.30 | 95 | 1010.6 |
| 20260509124504 | 10 | 224 | 3.2 | 17.7 | 0.08 | 0.79 | 0.28 | 95 | 1010.6 |
| 20260509124025 | 10 | 223 | 3.2 | 9.7 | 0.08 | 0.79 | 0.28 | 96 | 1010.6 |
| 20260509123504 | 10 | 223 | 3.2 | 11.3 | 0.05 | 0.76 | 0.25 | 96 | 1010.6 |
| 20260509123005 | 10 | 226 | 3.2 | 11.3 | 0.05 | 0.76 | 0.25 | 96 | 1010.6 |
| 20260509122505 | 10 | 231 | 1.6 | 9.7 | 0.05 | 0.76 | 0.25 | 95 | 1010.6 |
| 20260509122004 | 10 | 223 | 3.2 | 9.7 | 0.05 | 0.76 | 0.25 | 95 | 1010.6 |
| 20260509121526 | 10 | 227 | 3.2 | 9.7 | 0.05 | 0.76 | 0.25 | 95 | 1010.6 |
| 20260509121004 | 9 | 221 | 3.2 | 12.9 | 0.03 | 0.74 | 0.23 | 96 | 1010.6 |
| 20260509120525 | 9 | 221 | 3.2 | 12.9 | 0.03 | 0.74 | 0.23 | 96 | 1010.6 |
| 20260509120004 | 9 | 231 | 1.6 | 8.0 | 0.03 | 0.74 | 0.23 | 95 | 1010.6 |
| 20260509115525 | 9 | 229 | 1.6 | 9.7 | 0.03 | 0.74 | 0.23 | 95 | 1010.6 |
| 20260509115004 | 9 | 231 | 1.6 | 11.3 | 0.05 | 0.74 | 0.23 | 95 | 1010.6 |
| 20260509114525 | 9 | 243 | 0.0 | 11.3 | 0.03 | 0.71 | 0.20 | 95 | 1010.6 |
| 20260509114005 | 8 | 246 | 0.0 | 8.0 | 0.03 | 0.71 | 0.20 | 95 | 1010.6 |
| 20260509113504 | 8 | 254 | 0.0 | 8.0 | 0.03 | 0.71 | 0.20 | 95 | 1010.6 |
| 20260509113005 | 8 | 304 | 0.0 | 3.2 | 0.03 | 0.71 | 0.20 | 95 | 1010.6 |
| 20260509112505 | 8 | 311 | 0.0 | 3.2 | 0.03 | 0.71 | 0.20 | 95 | 1010.6 |
| 20260509112005 | 8 | 294 | 0.0 | 1.6 | 0.03 | 0.71 | 0.20 | 95 | 1010.6 |
| 20260509111504 | 8 | 0 | 0.0 | 0.0 | 0.03 | 0.71 | 0.20 | 95 | 1010.6 |
| 20260509111005 | 8 | 0 | 0.0 | 0.0 | 0.05 | 0.71 | 0.20 | 95 | 1010.6 |
| 20260509110505 | 8 | 0 | 0.0 | 0.0 | 0.05 | 0.71 | 0.20 | 95 | 1010.6 |
| 20260509110005 | 8 | 0 | 0.0 | 0.0 | 0.05 | 0.71 | 0.20 | 95 | 1010.6 |
| 20260509105504 | 8 | 0 | 0.0 | 0.0 | 0.05 | 0.71 | 0.20 | 95 | 1010.6 |
| 20260509105026 | 8 | 0 | 0.0 | 0.0 | 0.05 | 0.69 | 0.18 | 95 | 1010.6 |
| 20260509104504 | 8 | 0 | 0.0 | 0.0 | 0.05 | 0.69 | 0.18 | 95 | 1010.6 |
| 20260509104005 | 8 | 0 | 0.0 | 0.0 | 0.05 | 0.69 | 0.18 | 95 | 1010.6 |
| 20260509103525 | 8 | 0 | 0.0 | 0.0 | 0.05 | 0.69 | 0.18 | 95 | 1010.6 |
| 20260509103004 | 8 | 0 | 0.0 | 0.0 | 0.05 | 0.69 | 0.18 | 95 | 1010.6 |
| 20260509102504 | 8 | 0 | 0.0 | 0.0 | 0.08 | 0.69 | 0.18 | 95 | 1010.6 |
| 20260509102004 | 8 | 117 | 0.0 | 3.2 | 0.08 | 0.69 | 0.18 | 95 | 1010.6 |
| 20260509101504 | 8 | 117 | 0.0 | 3.2 | 0.08 | 0.69 | 0.18 | 95 | 1010.6 |
| 20260509101026 | 8 | 0 | 0.0 | 0.0 | 0.05 | 0.66 | 0.15 | 95 | 1010.6 |
| 20260509100504 | 8 | 0 | 0.0 | 0.0 | 0.05 | 0.66 | 0.15 | 95 | 1010.6 |
| 20260509100005 | 8 | 0 | 0.0 | 0.0 | 0.08 | 0.66 | 0.15 | 95 | 1010.6 |
| 20260509095504 | 8 | 0 | 0.0 | 0.0 | 0.08 | 0.66 | 0.15 | 95 | 1010.6 |
| 20260509095004 | 8 | 0 | 0.0 | 0.0 | 0.05 | 0.64 | 0.13 | 95 | 1010.6 |
| 20260509094525 | 8 | 320 | 0.0 | 3.2 | 0.05 | 0.66 | 0.13 | 95 | 1010.6 |
| 20260509094004 | 8 | 321 | 0.0 | 3.2 | 0.05 | 0.66 | 0.13 | 95 | 1010.6 |
| 20260509093504 | 8 | 321 | 0.0 | 3.2 | 0.05 | 0.66 | 0.13 | 95 | 1010.6 |
| 20260509093004 | 8 | 0 | 0.0 | 0.0 | 0.08 | 0.66 | 0.13 | 95 | 1010.6 |
| 20260509092504 | 8 | 0 | 0.0 | 0.0 | 0.05 | 0.64 | 0.10 | 95 | 1010.6 |
| 20260509092026 | 8 | 0 | 0.0 | 0.0 | 0.05 | 0.64 | 0.10 | 95 | 1010.6 |
| 20260509091504 | 8 | 0 | 0.0 | 0.0 | 0.05 | 0.64 | 0.10 | 95 | 1010.6 |
| 20260509091004 | 8 | 0 | 0.0 | 0.0 | 0.05 | 0.64 | 0.10 | 95 | 1010.6 |
| 20260509090505 | 8 | 0 | 0.0 | 0.0 | 0.05 | 0.64 | 0.10 | 95 | 1010.6 |
| 20260509090005 | 8 | 0 | 0.0 | 0.0 | 0.03 | 0.61 | 0.08 | 95 | 1010.6 |
| 20260509085525 | 8 | 0 | 0.0 | 0.0 | 0.03 | 0.61 | 0.08 | 95 | 1010.6 |
| 20260509085025 | 8 | 0 | 0.0 | 0.0 | 0.03 | 0.61 | 0.08 | 95 | 1010.6 |
| 20260509084504 | 8 | 0 | 0.0 | 0.0 | 0.03 | 0.61 | 0.08 | 94 | 1010.6 |
| 20260509084004 | 8 | 0 | 0.0 | 0.0 | 0.03 | 0.61 | 0.08 | 95 | 1010.6 |
| 20260509083504 | 8 | 109 | 0.0 | 1.6 | 0.03 | 0.61 | 0.08 | 95 | 1010.6 |
| 20260509083004 | 8 | 109 | 0.0 | 1.6 | 0.00 | 0.58 | 0.05 | 95 | 1010.6 |
| 20260509082526 | 8 | 0 | 0.0 | 0.0 | 0.00 | 0.58 | 0.05 | 95 | 1010.6 |
| 20260509082005 | 8 | 0 | 0.0 | 0.0 | 0.00 | 0.58 | 0.05 | 95 | 1010.6 |
| 20260509081504 | 8 | 0 | 0.0 | 0.0 | 0.00 | 0.58 | 0.05 | 94 | 1010.6 |
| 20260509081004 | 8 | 0 | 0.0 | 0.0 | 0.00 | 0.58 | 0.05 | 94 | 1010.6 |
| 20260509080504 | 8 | 337 | 1.6 | 4.8 | 0.00 | 0.58 | 0.05 | 94 | 1010.6 |
| 20260509080005 | 8 | 332 | 1.6 | 6.4 | 0.00 | 0.58 | 0.05 | 94 | 1010.6 |
| 20260509075505 | 8 | 330 | 0.0 | 6.4 | 0.00 | 0.58 | 0.05 | 94 | 1010.6 |
| 20260509075004 | 8 | 0 | 0.0 | 0.0 | 0.00 | 0.58 | 0.05 | 94 | 1010.6 |
| 20260509074504 | 8 | 0 | 0.0 | 0.0 | 0.00 | 0.58 | 0.05 | 94 | 1010.6 |
| 20260509074004 | 8 | 0 | 0.0 | 0.0 | 0.00 | 0.58 | 0.05 | 94 | 1010.6 |
| 20260509073504 | 8 | 0 | 0.0 | 0.0 | 0.00 | 0.58 | 0.05 | 94 | 1010.6 |
| 20260509073025 | 8 | 0 | 0.0 | 0.0 | 0.00 | 0.58 | 0.05 | 94 | 1010.6 |
| 20260509072504 | 8 | 0 | 0.0 | 0.0 | 0.00 | 0.58 | 0.05 | 94 | 1010.6 |
| 20260509072025 | 8 | 0 | 0.0 | 0.0 | 0.00 | 0.58 | 0.05 | 94 | 1010.6 |
| 20260509071504 | 8 | 0 | 0.0 | 0.0 | 0.00 | 0.58 | 0.05 | 94 | 1010.6 |
| 20260509071025 | 8 | 0 | 0.0 | 0.0 | 0.00 | 0.58 | 0.05 | 94 | 1010.6 |
| 20260509070505 | 8 | 0 | 0.0 | 0.0 | 0.00 | 0.58 | 0.05 | 94 | 1010.6 |
| 20260509070005 | 8 | 0 | 0.0 | 0.0 | 0.00 | 0.58 | 0.05 | 94 | 1010.6 |
| 20260509065525 | 8 | 0 | 0.0 | 0.0 | 0.00 | 0.58 | 0.05 | 94 | 1010.6 |
| 20260509065005 | 8 | 0 | 0.0 | 0.0 | 0.00 | 0.58 | 0.05 | 94 | 1010.6 |
| 20260509064504 | 8 | 0 | 0.0 | 0.0 | 0.00 | 0.58 | 0.05 | 94 | 1010.6 |
| 20260509064004 | 8 | 0 | 0.0 | 0.0 | 0.00 | 0.58 | 0.05 | 94 | 1010.6 |
| 20260509063504 | 8 | 0 | 0.0 | 0.0 | 0.00 | 0.58 | 0.05 | 94 | 1010.6 |
| 20260509063005 | 8 | 0 | 0.0 | 0.0 | 0.00 | 0.58 | 0.05 | 94 | 1010.6 |
| 20260509062526 | 8 | 0 | 0.0 | 0.0 | 0.00 | 0.58 | 0.05 | 94 | 1010.6 |
| 20260509062004 | 8 | 0 | 0.0 | 0.0 | 0.00 | 0.58 | 0.05 | 94 | 1010.6 |
| 20260509061504 | 8 | 0 | 0.0 | 0.0 | 0.00 | 0.58 | 0.05 | 94 | 1010.6 |
| 20260509061004 | 8 | 0 | 0.0 | 0.0 | 0.00 | 0.58 | 0.05 | 94 | 1010.6 |
| 20260509060504 | 8 | 0 | 0.0 | 0.0 | 0.00 | 0.58 | 0.05 | 94 | 1010.6 |
| 20260509060026 | 8 | 0 | 0.0 | 0.0 | 0.00 | 0.58 | 0.05 | 94 | 1010.6 |
| 20260509055504 | 8 | 0 | 0.0 | 0.0 | 0.03 | 0.58 | 0.05 | 94 | 1010.6 |
| 20260509055004 | 8 | 0 | 0.0 | 0.0 | 0.03 | 0.58 | 0.05 | 94 | 1010.6 |
| 20260509054525 | 8 | 87 | 1.6 | 3.2 | 0.03 | 0.58 | 0.05 | 94 | 1010.6 |
| 20260509054004 | 8 | 69 | 1.6 | 4.8 | 0.03 | 0.58 | 0.05 | 94 | 1010.6 |
| 20260509053525 | 8 | 50 | 1.6 | 4.8 | 0.03 | 0.58 | 0.05 | 94 | 1010.6 |
| 20260509053004 | 8 | 35 | 1.6 | 4.8 | 0.03 | 0.58 | 0.05 | 94 | 1010.6 |
| 20260509052504 | 8 | 48 | 0.0 | 4.8 | 0.03 | 0.58 | 0.05 | 94 | 1010.6 |
| 20260509052004 | 8 | 47 | 0.0 | 4.8 | 0.05 | 0.58 | 0.05 | 94 | 1010.6 |
| 20260509051505 | 8 | 46 | 0.0 | 3.2 | 0.05 | 0.58 | 0.05 | 94 | 1010.6 |
| 20260509051025 | 8 | 72 | 0.0 | 3.2 | 0.05 | 0.58 | 0.05 | 94 | 1010.6 |
| 20260509050525 | 8 | 109 | 0.0 | 1.6 | 0.05 | 0.58 | 0.05 | 93 | 1010.6 |
| 20260509050004 | 8 | 109 | 0.0 | 3.2 | 0.05 | 0.58 | 0.05 | 93 | 1010.6 |
| 20260509045504 | 8 | 109 | 0.0 | 3.2 | 0.03 | 0.56 | 0.03 | 93 | 1010.6 |
| 20260509045004 | 8 | 0 | 0.0 | 0.0 | 0.03 | 0.56 | 0.03 | 93 | 1010.7 |
| 20260509044504 | 8 | 0 | 0.0 | 0.0 | 0.05 | 0.56 | 0.03 | 93 | 1010.7 |
| 20260509044004 | 8 | 0 | 0.0 | 0.0 | 0.05 | 0.56 | 0.03 | 93 | 1010.7 |
| 20260509043505 | 8 | 0 | 0.0 | 0.0 | 0.08 | 0.56 | 0.03 | 93 | 1010.7 |
| 20260509043004 | 8 | 0 | 0.0 | 0.0 | 0.08 | 0.56 | 0.03 | 93 | 1010.9 |
| 20260509042505 | 8 | 0 | 0.0 | 0.0 | 0.08 | 0.56 | 0.03 | 93 | 1010.9 |
| 20260509042004 | 8 | 0 | 0.0 | 0.0 | 0.05 | 0.53 | 0.00 | 93 | 1011.0 |
| 20260509041504 | 8 | 0 | 0.0 | 0.0 | 0.08 | 0.53 | 0.00 | 93 | 1011.1 |
| 20260509041004 | 8 | 0 | 0.0 | 0.0 | 0.08 | 0.53 | 0.00 | 93 | 1011.1 |
| 20260509040504 | 8 | 0 | 0.0 | 0.0 | 0.08 | 0.53 | 0.00 | 93 | 1011.2 |
| 20260509040008 | 8 | 0 | 0.0 | 0.0 | 0.10 | 0.53 | 0.00 | 93 | 1011.3 |
| 20260509035504 | 8 | 290 | 0.0 | 1.6 | 0.10 | 0.53 | 0.53 | 93 | 1011.4 |
| 20260509035004 | 9 | 290 | 0.0 | 1.6 | 0.10 | 0.53 | 0.53 | 93 | 1011.4 |
| 20260509034525 | 9 | 293 | 0.0 | 1.6 | 0.08 | 0.51 | 0.51 | 93 | 1011.5 |
| 20260509034004 | 9 | 0 | 0.0 | 0.0 | 0.08 | 0.51 | 0.51 | 93 | 1011.4 |
| 20260509033504 | 9 | 0 | 0.0 | 0.0 | 0.08 | 0.48 | 0.48 | 93 | 1011.3 |
| 20260509033004 | 9 | 0 | 1.6 | 0.0 | 0.08 | 0.48 | 0.48 | 93 | 1011.3 |
| 20260509032504 | 9 | 175 | 1.6 | 4.8 | 0.08 | 0.48 | 0.48 | 92 | 1011.3 |
| 20260509032004 | 9 | 174 | 0.0 | 4.8 | 0.10 | 0.48 | 0.48 | 93 | 1011.5 |
| 20260509031504 | 9 | 141 | 0.0 | 1.6 | 0.08 | 0.46 | 0.46 | 92 | 1011.4 |
| 20260509031004 | 9 | 0 | 0.0 | 0.0 | 0.08 | 0.46 | 0.46 | 92 | 1011.4 |
| 20260509030504 | 9 | 0 | 0.0 | 0.0 | 0.08 | 0.46 | 0.46 | 92 | 1011.4 |
| 20260509030004 | 9 | 0 | 0.0 | 0.0 | 0.05 | 0.43 | 0.43 | 92 | 1011.4 |
| 20260509025504 | 9 | 0 | 0.0 | 0.0 | 0.05 | 0.43 | 0.43 | 92 | 1011.4 |
| 20260509025004 | 9 | 0 | 0.0 | 0.0 | 0.05 | 0.43 | 0.43 | 92 | 1011.4 |
| 20260509024505 | 9 | 0 | 0.0 | 0.0 | 0.05 | 0.43 | 0.43 | 92 | 1011.4 |
| 20260509024004 | 9 | 0 | 0.0 | 0.0 | 0.05 | 0.43 | 0.43 | 92 | 1011.4 |
| 20260509023504 | 9 | 0 | 0.0 | 0.0 | 0.03 | 0.41 | 0.41 | 92 | 1011.5 |
| 20260509023004 | 9 | 0 | 0.0 | 0.0 | 0.03 | 0.41 | 0.41 | 92 | 1011.4 |
| 20260509022505 | 9 | 0 | 0.0 | 0.0 | 0.03 | 0.41 | 0.41 | 92 | 1011.5 |
| 20260509022005 | 9 | 0 | 0.0 | 0.0 | 0.00 | 0.38 | 0.38 | 92 | 1011.4 |
| 20260509021525 | 9 | 0 | 0.0 | 0.0 | 0.00 | 0.38 | 0.38 | 91 | 1011.4 |
| 20260509021004 | 9 | 0 | 0.0 | 0.0 | 0.00 | 0.38 | 0.38 | 91 | 1011.3 |
| 20260509020504 | 9 | 0 | 0.0 | 0.0 | 0.00 | 0.38 | 0.38 | 91 | 1011.3 |
| 20260509020004 | 9 | 0 | 0.0 | 0.0 | 0.00 | 0.38 | 0.38 | 91 | 1011.3 |
| 20260509015504 | 9 | 0 | 0.0 | 0.0 | 0.00 | 0.38 | 0.38 | 91 | 1011.3 |
| 20260509015004 | 9 | 114 | 1.6 | 3.2 | 0.00 | 0.38 | 0.38 | 91 | 1011.1 |
| 20260509014525 | 9 | 120 | 0.0 | 3.2 | 0.00 | 0.38 | 0.38 | 91 | 1011.0 |
| 20260509014004 | 9 | 125 | 0.0 | 3.2 | 0.00 | 0.38 | 0.38 | 91 | 1011.0 |
| 20260509013504 | 10 | 0 | 0.0 | 0.0 | 0.00 | 0.38 | 0.38 | 91 | 1011.0 |
| 20260509013004 | 10 | 143 | 1.6 | 4.8 | 0.00 | 0.38 | 0.38 | 90 | 1010.9 |
| 20260509012505 | 10 | 74 | 1.6 | 6.4 | 0.00 | 0.38 | 0.38 | 90 | 1010.9 |
| 20260509012004 | 10 | 41 | 0.0 | 6.4 | 0.00 | 0.38 | 0.38 | 90 | 1010.7 |
| 20260509011504 | 10 | 25 | 0.0 | 4.8 | 0.00 | 0.38 | 0.38 | 90 | 1010.7 |
| 20260509011004 | 10 | 0 | 0.0 | 0.0 | 0.00 | 0.38 | 0.38 | 90 | 1010.7 |
| 20260509010504 | 10 | 0 | 0.0 | 0.0 | 0.00 | 0.38 | 0.38 | 90 | 1010.9 |
| 20260509010004 | 10 | 0 | 0.0 | 0.0 | 0.00 | 0.38 | 0.38 | 89 | 1010.9 |
| 20260509005504 | 10 | 0 | 0.0 | 0.0 | 0.00 | 0.38 | 0.38 | 89 | 1010.7 |
| 20260509005005 | 10 | 0 | 0.0 | 0.0 | 0.00 | 0.38 | 0.38 | 89 | 1010.6 |
| 20260509004504 | 10 | 0 | 0.0 | 0.0 | 0.03 | 0.38 | 0.38 | 89 | 1010.6 |
| 20260509004004 | 10 | 0 | 0.0 | 0.0 | 0.03 | 0.46 | 0.38 | 89 | 1010.6 |
| 20260509003505 | 10 | 0 | 0.0 | 0.0 | 0.03 | 0.46 | 0.38 | 88 | 1010.6 |
| 20260509003005 | 10 | 0 | 0.0 | 0.0 | 0.03 | 0.46 | 0.38 | 88 | 1010.6 |
| 20260509002525 | 10 | 0 | 0.0 | 0.0 | 0.03 | 0.46 | 0.38 | 88 | 1010.6 |
| 20260509002004 | 10 | 0 | 0.0 | 0.0 | 0.03 | 0.46 | 0.38 | 87 | 1010.6 |
| 20260509001504 | 10 | 0 | 0.0 | 0.0 | 0.03 | 0.46 | 0.38 | 87 | 1010.6 |
| 20260509001004 | 10 | 0 | 0.0 | 0.0 | 0.05 | 0.46 | 0.38 | 87 | 1010.6 |
| 20260509000524 | 10 | 153 | 1.6 | 1.6 | 0.05 | 0.46 | 0.38 | 86 | 1010.6 |
| 20260509000004 | 10 | 142 | 1.6 | 3.2 | 0.05 | 0.46 | 0.38 | 86 | 1010.6 |
| 20260508235504 | 10 | 136 | 1.6 | 4.8 | 0.05 | 0.46 | 0.38 | 86 | 1010.6 |
| 20260508235004 | 10 | 133 | 0.0 | 4.8 | 0.05 | 0.46 | 0.38 | 85 | 1010.6 |
| 20260508234525 | 11 | 140 | 0.0 | 1.6 | 0.03 | 0.43 | 0.36 | 84 | 1010.6 |
| 20260508234003 | 11 | 332 | 0.0 | 4.8 | 0.03 | 0.43 | 0.36 | 83 | 1010.6 |
| 20260508233504 | 11 | 332 | 0.0 | 4.8 | 0.03 | 0.43 | 0.36 | 83 | 1010.6 |
| 20260508233005 | 11 | 311 | 0.0 | 3.2 | 0.03 | 0.43 | 0.36 | 82 | 1010.6 |
| 20260508232504 | 11 | 269 | 0.0 | 1.6 | 0.03 | 0.43 | 0.36 | 82 | 1010.6 |
| 20260508232005 | 11 | 271 | 1.6 | 1.6 | 0.03 | 0.43 | 0.36 | 82 | 1010.6 |
| 20260508231504 | 11 | 268 | 1.6 | 4.8 | 0.03 | 0.43 | 0.36 | 81 | 1010.6 |
| 20260508231025 | 11 | 270 | 1.6 | 4.8 | 0.00 | 0.41 | 0.33 | 80 | 1010.6 |
| 20260508230524 | 11 | 246 | 1.6 | 11.3 | 0.00 | 0.41 | 0.33 | 80 | 1010.6 |
| 20260508230004 | 11 | 242 | 3.2 | 11.3 | 0.00 | 0.41 | 0.33 | 80 | 1010.6 |
| 20260508225505 | 11 | 238 | 3.2 | 8.0 | 0.00 | 0.41 | 0.33 | 80 | 1010.6 |
| 20260508225005 | 11 | 231 | 3.2 | 12.9 | 0.00 | 0.41 | 0.33 | 79 | 1010.6 |
| 20260508224525 | 11 | 232 | 3.2 | 12.9 | 0.00 | 0.41 | 0.33 | 79 | 1010.6 |
| 20260508224004 | 11 | 230 | 3.2 | 11.3 | 0.00 | 0.41 | 0.33 | 79 | 1010.6 |
| 20260508223504 | 11 | 229 | 1.6 | 11.3 | 0.00 | 0.41 | 0.33 | 79 | 1010.6 |
| 20260508223004 | 11 | 237 | 1.6 | 8.0 | 0.00 | 0.41 | 0.33 | 80 | 1010.6 |
| 20260508222504 | 11 | 239 | 1.6 | 6.4 | 0.00 | 0.41 | 0.33 | 80 | 1010.6 |
| 20260508222004 | 11 | 247 | 1.6 | 4.8 | 0.00 | 0.41 | 0.33 | 80 | 1010.6 |
| 20260508221504 | 12 | 242 | 1.6 | 8.0 | 0.00 | 0.41 | 0.33 | 80 | 1010.6 |
| 20260508221004 | 12 | 238 | 1.6 | 8.0 | 0.00 | 0.41 | 0.33 | 80 | 1010.6 |
| 20260508220504 | 12 | 237 | 3.2 | 8.0 | 0.00 | 0.41 | 0.33 | 80 | 1010.6 |
| 20260508220025 | 12 | 243 | 4.8 | 11.3 | 0.00 | 0.41 | 0.33 | 80 | 1010.6 |
| 20260508215504 | 12 | 239 | 6.4 | 14.5 | 0.00 | 0.41 | 0.33 | 80 | 1010.6 |
| 20260508215004 | 12 | 232 | 6.4 | 14.5 | 0.00 | 0.41 | 0.33 | 81 | 1010.6 |
| 20260508214504 | 12 | 239 | 6.4 | 14.5 | 0.00 | 0.41 | 0.33 | 81 | 1010.6 |
| 20260508214004 | 12 | 237 | 4.8 | 16.1 | 0.00 | 0.41 | 0.33 | 83 | 1010.6 |
| 20260508213504 | 12 | 228 | 4.8 | 17.7 | 0.00 | 0.41 | 0.33 | 84 | 1010.6 |
| 20260508213005 | 12 | 226 | 3.2 | 17.7 | 0.00 | 0.41 | 0.33 | 86 | 1010.6 |
| 20260508212504 | 12 | 224 | 3.2 | 12.9 | 0.00 | 0.41 | 0.33 | 87 | 1010.6 |
| 20260508212003 | 11 | 221 | 3.2 | 12.9 | 0.00 | 0.41 | 0.33 | 88 | 1010.6 |
| 20260508211503 | 11 | 221 | 3.2 | 9.7 | 0.00 | 0.41 | 0.33 | 88 | 1010.6 |
| 20260508211004 | 11 | 230 | 3.2 | 8.0 | 0.00 | 0.41 | 0.33 | 89 | 1010.6 |
| 20260508210503 | 11 | 233 | 1.6 | 9.7 | 0.00 | 0.41 | 0.33 | 88 | 1010.6 |
| 20260508210004 | 11 | 234 | 0.0 | 9.7 | 0.00 | 0.41 | 0.33 | 88 | 1010.6 |
| 20260508205504 | 11 | 240 | 0.0 | 3.2 | 0.03 | 0.41 | 0.33 | 88 | 1010.6 |
| 20260508205004 | 11 | 237 | 0.0 | 3.2 | 0.03 | 0.41 | 0.33 | 87 | 1010.6 |
| 20260508204504 | 11 | 0 | 0.0 | 0.0 | 0.05 | 0.41 | 0.33 | 87 | 1010.6 |
| 20260508204005 | 11 | 262 | 0.0 | 1.6 | 0.05 | 0.41 | 0.33 | 87 | 1010.6 |
| 20260508203503 | 11 | 226 | 1.6 | 1.6 | 0.05 | 0.41 | 0.33 | 87 | 1010.6 |
| 20260508203024 | 11 | 212 | 1.6 | 6.4 | 0.08 | 0.41 | 0.33 | 87 | 1010.6 |
| 20260508202503 | 11 | 208 | 0.0 | 6.4 | 0.10 | 0.41 | 0.33 | 87 | 1010.6 |
| 20260508202025 | 11 | 201 | 0.0 | 4.8 | 0.20 | 0.41 | 0.33 | 86 | 1010.6 |
| 20260508201504 | 11 | 0 | 0.0 | 0.0 | 0.25 | 0.41 | 0.33 | 86 | 1010.6 |
| 20260508201004 | 11 | 227 | 1.6 | 3.2 | 0.30 | 0.41 | 0.33 | 85 | 1010.6 |
| 20260508200525 | 11 | 270 | 3.2 | 4.8 | 0.30 | 0.41 | 0.33 | 84 | 1010.6 |
| 20260508200004 | 11 | 275 | 3.2 | 6.4 | 0.30 | 0.41 | 0.33 | 84 | 1010.7 |
| 20260508195504 | 11 | 283 | 4.8 | 8.0 | 0.28 | 0.38 | 0.30 | 83 | 1010.8 |
| 20260508195004 | 11 | 286 | 6.4 | 8.0 | 0.28 | 0.38 | 0.30 | 82 | 1010.9 |
| 20260508194525 | 11 | 282 | 4.8 | 11.3 | 0.25 | 0.36 | 0.28 | 81 | 1011.1 |
| 20260508194004 | 11 | 282 | 3.2 | 11.3 | 0.25 | 0.36 | 0.28 | 80 | 1011.1 |
| 20260508193504 | 12 | 275 | 4.8 | 11.3 | 0.25 | 0.36 | 0.28 | 78 | 1011.1 |
| 20260508193003 | 12 | 263 | 4.8 | 8.0 | 0.23 | 0.33 | 0.25 | 77 | 1011.1 |
| 20260508192503 | 12 | 256 | 4.8 | 12.9 | 0.20 | 0.30 | 0.23 | 75 | 1011.2 |
| 20260508192004 | 13 | 249 | 4.8 | 12.9 | 0.10 | 0.20 | 0.13 | 72 | 1011.2 |
| 20260508191524 | 13 | 244 | 4.8 | 11.3 | 0.05 | 0.15 | 0.08 | 69 | 1011.0 |
| 20260508191004 | 14 | 242 | 4.8 | 8.0 | 0.00 | 0.10 | 0.03 | 66 | 1010.6 |
| 20260508190503 | 14 | 241 | 6.4 | 16.1 | 0.00 | 0.10 | 0.03 | 63 | 1010.6 |
| 20260508190004 | 14 | 236 | 6.4 | 16.1 | 0.00 | 0.10 | 0.03 | 62 | 1010.6 |
| 20260508185504 | 15 | 231 | 4.8 | 16.1 | 0.00 | 0.10 | 0.03 | 60 | 1010.6 |
| 20260508185003 | 15 | 238 | 4.8 | 16.1 | 0.00 | 0.10 | 0.03 | 58 | 1010.6 |
| 20260508184504 | 15 | 256 | 4.8 | 9.7 | 0.00 | 0.10 | 0.03 | 57 | 1010.6 |
| 20260508184004 | 15 | 241 | 8.0 | 11.3 | 0.00 | 0.10 | 0.03 | 59 | 1010.6 |
| 20260508183504 | 15 | 223 | 9.7 | 22.5 | 0.00 | 0.10 | 0.03 | 59 | 1010.6 |
| 20260508183004 | 14 | 217 | 9.7 | 22.5 | 0.00 | 0.10 | 0.03 | 61 | 1010.6 |
| 20260508182504 | 14 | 222 | 6.4 | 19.3 | 0.00 | 0.10 | 0.03 | 59 | 1010.6 |
| 20260508182025 | 15 | 224 | 4.8 | 19.3 | 0.00 | 0.10 | 0.03 | 59 | 1010.6 |
| 20260508181525 | 15 | 224 | 3.2 | 19.3 | 0.00 | 0.10 | 0.03 | 57 | 1010.6 |
| 20260508181003 | 15 | 246 | 3.2 | 11.3 | 0.00 | 0.10 | 0.03 | 57 | 1010.6 |
| 20260508180504 | 15 | 263 | 3.2 | 9.7 | 0.00 | 0.10 | 0.03 | 56 | 1010.6 |
| 20260508180004 | 15 | 264 | 3.2 | 9.7 | 0.00 | 0.10 | 0.03 | 55 | 1010.6 |
| 20260508175504 | 15 | 265 | 3.2 | 8.0 | 0.00 | 0.10 | 0.03 | 55 | 1010.6 |
| 20260508175004 | 15 | 247 | 3.2 | 11.3 | 0.00 | 0.10 | 0.03 | 54 | 1010.6 |
| 20260508174504 | 16 | 252 | 3.2 | 11.3 | 0.00 | 0.10 | 0.03 | 54 | 1010.6 |